Time;durP1;ratioP1;P1;durP2;ratioP2;P2;SDS_P1;SDS_P2;PMS_P1;PMS_P2;Temp;Humidity;BMP_temperature;BMP_pressure;BME280_temperature;BME280_humidity;BME280_pressure;Samples;Min_cycle;Max_cycle;Signal;HPM_P1;HPM_P2
2024/01/20 00:00:58;;;;;;;;;;;0.50;99.90;;;;;;4981020;28;19929;-79
2024/01/20 00:03:43;;;;;;;;;;;0.50;99.90;;;;;;4979702;28;19987;-79
2024/01/20 00:06:29;;;;;;;;;;;0.50;99.90;;;;;;4984019;28;20009;-79
2024/01/20 00:09:17;;;;;;;;;;;0.50;99.90;;;;;;4978486;28;19953;-79
2024/01/20 00:12:03;;;;;;;;;;;0.50;99.90;;;;;;4982059;28;19926;-80
2024/01/20 00:14:49;;;;;;;;;;;0.40;99.90;;;;;;4965338;28;20350;-79
2024/01/20 00:17:38;;;;;;;;;;;0.40;99.90;;;;;;4980992;28;19988;-79
2024/01/20 00:20:24;;;;;;;;;;;0.30;99.90;;;;;;4980189;28;20259;-80
2024/01/20 00:23:10;;;;;;;;;;;0.40;99.90;;;;;;4981587;28;19992;-79
2024/01/20 00:25:56;;;;;;;;;;;0.40;99.90;;;;;;4992005;28;19918;-79
2024/01/20 00:28:42;;;;;;;;;;;0.30;99.90;;;;;;4968991;28;19917;-79
2024/01/20 00:31:28;;;;;;;;;;;0.40;99.90;;;;;;4988610;28;19933;-79
2024/01/20 00:34:14;;;;;;;;;;;0.30;99.90;;;;;;4974036;28;19918;-79
2024/01/20 00:37:03;;;;;;;;;;;0.30;99.90;;;;;;4982443;28;19991;-78
2024/01/20 00:39:49;;;;;;;;;;;0.30;99.90;;;;;;4977905;28;20243;-80
2024/01/20 00:42:35;;;;;;;;;;;0.20;99.90;;;;;;4965711;28;19944;-80
2024/01/20 00:45:21;;;;;;;;;;;0.10;99.90;;;;;;4991914;28;19917;-79
2024/01/20 00:48:07;;;;;;;;;;;0.10;99.90;;;;;;4985326;28;20108;-79
2024/01/20 00:50:53;;;;;;;;;;;0.10;99.90;;;;;;4981291;28;20613;-79
2024/01/20 00:53:38;;;;;;;;;;;0.10;99.90;;;;;;4979527;28;20242;-80
2024/01/20 00:56:24;;;;;;;;;;;0.10;99.90;;;;;;4978612;28;20050;-80
2024/01/20 00:59:10;;;;;;;;;;;0.10;99.90;;;;;;4982004;28;20381;-80
2024/01/20 01:01:57;;;;;;;;;;;0.10;99.90;;;;;;4985342;28;19962;-78
2024/01/20 01:04:43;;;;;;;;;;;0.10;99.90;;;;;;4966778;28;19922;-79
2024/01/20 01:07:29;;;;;;;;;;;0.10;99.90;;;;;;4976652;28;19926;-79
2024/01/20 01:10:16;;;;;;;;;;;0.20;99.90;;;;;;4978288;28;19922;-79
2024/01/20 01:13:02;;;;;;;;;;;0.20;99.90;;;;;;4988407;28;20005;-79
2024/01/20 01:15:47;;;;;;;;;;;0.20;99.90;;;;;;4977480;28;20406;-79
2024/01/20 01:18:33;;;;;;;;;;;0.20;99.90;;;;;;4975771;28;19997;-79
2024/01/20 01:21:19;;;;;;;;;;;0.20;99.90;;;;;;4978607;28;19918;-78
2024/01/20 01:24:05;;;;;;;;;;;0.20;99.90;;;;;;4972834;28;19918;-78
2024/01/20 01:26:51;;;;;;;;;;;0.20;99.90;;;;;;4973503;28;20353;-77
2024/01/20 01:29:38;;;;;;;;;;;0.20;99.90;;;;;;4981900;28;19928;-78
2024/01/20 01:32:25;;;;;;;;;;;0.10;99.90;;;;;;4981337;28;19928;-79
2024/01/20 01:35:11;;;;;;;;;;;0.10;99.90;;;;;;4977387;28;19957;-79
2024/01/20 01:37:58;;;;;;;;;;;0.20;99.90;;;;;;4976956;28;20236;-79
2024/01/20 01:40:44;;;;;;;;;;;0.10;99.90;;;;;;4978739;28;19918;-80
2024/01/20 01:43:29;;;;;;;;;;;0.10;99.90;;;;;;4976017;28;20329;-79
2024/01/20 01:46:15;;;;;;;;;;;0.10;99.90;;;;;;4976845;28;19925;-79
2024/01/20 01:49:01;;;;;;;;;;;0.10;99.90;;;;;;4983170;28;20302;-79
2024/01/20 01:51:47;;;;;;;;;;;0.10;99.90;;;;;;4965670;28;19950;-79
2024/01/20 01:54:34;;;;;;;;;;;0.10;99.90;;;;;;4974507;28;19929;-79
2024/01/20 01:57:20;;;;;;;;;;;0.20;99.90;;;;;;4977015;28;19933;-78
2024/01/20 02:00:06;;;;;;;;;;;0.20;99.90;;;;;;4977823;28;19929;-80
2024/01/20 02:02:52;;;;;;;;;;;0.20;99.90;;;;;;4984106;28;19918;-80
2024/01/20 02:05:38;;;;;;;;;;;0.20;99.90;;;;;;4965815;28;19983;-80
2024/01/20 02:08:24;;;;;;;;;;;0.20;99.90;;;;;;4976648;28;19954;-79
2024/01/20 02:11:10;;;;;;;;;;;0.30;99.90;;;;;;4963578;28;19925;-79
2024/01/20 02:13:56;;;;;;;;;;;0.20;99.90;;;;;;4991505;28;19918;-79
2024/01/20 02:16:42;;;;;;;;;;;0.30;99.90;;;;;;4994923;28;19913;-78
2024/01/20 02:19:28;;;;;;;;;;;0.30;99.90;;;;;;5006481;28;19922;-79
2024/01/20 02:22:14;;;;;;;;;;;0.30;99.90;;;;;;5003918;28;19914;-79
2024/01/20 02:25:00;;;;;;;;;;;0.40;99.90;;;;;;4993478;28;19964;-79
2024/01/20 02:27:45;;;;;;;;;;;0.40;99.90;;;;;;4969967;28;19930;-78
2024/01/20 02:30:31;;;;;;;;;;;0.40;99.90;;;;;;4976100;28;19922;-78
2024/01/20 02:33:17;;;;;;;;;;;0.50;99.90;;;;;;4967374;28;19914;-78
2024/01/20 02:36:03;;;;;;;;;;;0.50;99.90;;;;;;4981799;28;20367;-77
2024/01/20 02:38:49;;;;;;;;;;;0.50;99.90;;;;;;4967680;28;19925;-77
2024/01/20 02:41:35;;;;;;;;;;;0.50;99.90;;;;;;4993303;28;20330;-78
2024/01/20 02:44:21;;;;;;;;;;;0.60;99.90;;;;;;4994501;28;19968;-78
2024/01/20 02:47:08;;;;;;;;;;;0.60;99.90;;;;;;5011495;28;19960;-78
2024/01/20 02:49:54;;;;;;;;;;;0.70;99.90;;;;;;4992113;28;19913;-77
2024/01/20 02:52:39;;;;;;;;;;;0.70;99.90;;;;;;4985396;28;19964;-76
2024/01/20 02:55:25;;;;;;;;;;;0.80;99.90;;;;;;4983833;28;20035;-79
2024/01/20 02:58:11;;;;;;;;;;;0.80;99.90;;;;;;4982212;28;20339;-78
2024/01/20 03:00:58;;;;;;;;;;;1.10;99.90;;;;;;4987800;28;19928;-79
2024/01/20 03:03:45;;;;;;;;;;;1.00;99.90;;;;;;5000813;28;20365;-77
2024/01/20 03:06:32;;;;;;;;;;;1.00;99.90;;;;;;5145198;23;19933;-78
2024/01/20 03:09:18;;;;;;;;;;;0.90;99.90;;;;;;5028477;28;20236;-78
2024/01/20 03:12:04;;;;;;;;;;;0.90;99.90;;;;;;5011153;28;19913;-77
2024/01/20 03:14:50;;;;;;;;;;;0.90;99.90;;;;;;5008725;28;20003;-77
2024/01/20 03:17:36;;;;;;;;;;;0.90;99.90;;;;;;5031143;28;20095;-77
2024/01/20 03:20:21;;;;;;;;;;;0.90;99.90;;;;;;5019339;28;19928;-77
2024/01/20 03:23:07;;;;;;;;;;;1.00;99.90;;;;;;5018627;28;19913;-78
2024/01/20 03:25:53;;;;;;;;;;;1.00;99.90;;;;;;5018286;28;20305;-78
2024/01/20 03:28:40;;;;;;;;;;;1.00;99.90;;;;;;5029805;28;19971;-77
2024/01/20 03:31:26;;;;;;;;;;;1.00;99.90;;;;;;5019444;28;19928;-77
2024/01/20 03:34:12;;;;;;;;;;;1.00;99.90;;;;;;5021473;28;19956;-78
2024/01/20 03:36:58;;;;;;;;;;;1.00;99.90;;;;;;5017019;28;20571;-78
2024/01/20 03:39:44;;;;;;;;;;;1.10;99.90;;;;;;5019194;28;19917;-77
2024/01/20 03:42:30;;;;;;;;;;;1.00;99.90;;;;;;5024389;28;20234;-77
2024/01/20 03:45:16;;;;;;;;;;;1.00;99.90;;;;;;5021241;28;19931;-78
2024/01/20 03:48:02;;;;;;;;;;;1.10;99.90;;;;;;5009668;28;19924;-77
2024/01/20 03:50:47;;;;;;;;;;;1.00;99.90;;;;;;4998338;28;19913;-77
2024/01/20 03:53:33;;;;;;;;;;;1.00;99.90;;;;;;5035013;28;19914;-78
2024/01/20 03:56:19;;;;;;;;;;;1.00;99.90;;;;;;5009515;28;20462;-79
2024/01/20 03:59:05;;;;;;;;;;;1.10;99.90;;;;;;5018215;28;19976;-79
2024/01/20 04:01:51;;;;;;;;;;;1.20;99.90;;;;;;5020612;28;19921;-77
2024/01/20 04:04:37;;;;;;;;;;;1.10;99.90;;;;;;5005451;28;20004;-78
2024/01/20 04:07:23;;;;;;;;;;;1.10;99.90;;;;;;5017765;28;19925;-79
2024/01/20 04:10:09;;;;;;;;;;;1.20;99.90;;;;;;5026186;28;20636;-79
2024/01/20 04:12:55;;;;;;;;;;;1.10;99.90;;;;;;5012658;28;19920;-79
2024/01/20 04:15:41;;;;;;;;;;;1.20;99.90;;;;;;5010200;28;20000;-79
2024/01/20 04:18:27;;;;;;;;;;;1.20;99.90;;;;;;5021829;28;19916;-77
2024/01/20 04:21:13;;;;;;;;;;;1.20;99.90;;;;;;5021473;28;19917;-78
2024/01/20 04:23:58;;;;;;;;;;;1.20;99.90;;;;;;5027736;28;19917;-79
2024/01/20 04:26:44;;;;;;;;;;;1.10;99.90;;;;;;5031440;28;19920;-78
2024/01/20 04:29:31;;;;;;;;;;;1.20;99.90;;;;;;5017562;28;20677;-77
2024/01/20 04:32:17;;;;;;;;;;;1.20;99.90;;;;;;5011212;28;19927;-78
2024/01/20 04:35:04;;;;;;;;;;;1.20;99.90;;;;;;5021482;28;19917;-77
2024/01/20 04:37:49;;;;;;;;;;;1.20;99.90;;;;;;5007709;28;20032;-76
2024/01/20 04:40:35;;;;;;;;;;;1.30;99.90;;;;;;5007687;28;19952;-77
2024/01/20 04:43:21;;;;;;;;;;;1.20;99.90;;;;;;5006542;28;20309;-77
2024/01/20 04:46:07;;;;;;;;;;;1.20;99.90;;;;;;5021437;28;20008;-76
2024/01/20 04:48:53;;;;;;;;;;;1.30;99.90;;;;;;5034059;28;19921;-77
2024/01/20 04:51:39;;;;;;;;;;;1.20;99.90;;;;;;5009426;28;19914;-75
2024/01/20 04:54:25;;;;;;;;;;;1.30;99.90;;;;;;5019619;28;20000;-76
2024/01/20 04:57:11;;;;;;;;;;;1.20;99.90;;;;;;5031209;28;19923;-76
2024/01/20 04:59:57;;;;;;;;;;;1.20;99.90;;;;;;5040832;28;19913;-77
2024/01/20 05:02:42;;;;;;;;;;;1.20;99.90;;;;;;5022215;28;19917;-75
2024/01/20 05:05:28;;;;;;;;;;;1.20;99.90;;;;;;5011722;28;19976;-75
2024/01/20 05:08:14;;;;;;;;;;;1.10;99.90;;;;;;5022890;28;19928;-78
2024/01/20 05:11:00;;;;;;;;;;;1.10;99.90;;;;;;5033559;28;19912;-78
2024/01/20 05:13:46;;;;;;;;;;;1.10;99.90;;;;;;5027989;28;19916;-77
2024/01/20 05:16:32;;;;;;;;;;;1.10;99.90;;;;;;5037565;28;19913;-77
2024/01/20 05:19:17;;;;;;;;;;;1.10;99.90;;;;;;5005465;28;19950;-77
2024/01/20 05:22:03;;;;;;;;;;;1.00;99.90;;;;;;5027537;28;19913;-76
2024/01/20 05:24:49;;;;;;;;;;;1.00;99.90;;;;;;5017135;28;20007;-77
2024/01/20 05:27:35;;;;;;;;;;;0.90;99.90;;;;;;5010919;28;20597;-77
2024/01/20 05:30:21;;;;;;;;;;;0.90;99.90;;;;;;5025943;28;19913;-77
2024/01/20 05:33:07;;;;;;;;;;;0.90;99.90;;;;;;5030784;28;19913;-76
2024/01/20 05:35:53;;;;;;;;;;;0.80;99.90;;;;;;5005668;28;19996;-77
2024/01/20 05:38:39;;;;;;;;;;;0.80;99.90;;;;;;5020881;28;19928;-78
2024/01/20 05:41:25;;;;;;;;;;;0.80;99.90;;;;;;5039467;28;20275;-78
2024/01/20 05:44:11;;;;;;;;;;;0.80;99.90;;;;;;5006024;28;20321;-77
2024/01/20 05:46:57;;;;;;;;;;;0.70;99.90;;;;;;5011812;28;19927;-78
2024/01/20 05:49:42;;;;;;;;;;;0.70;99.90;;;;;;5010296;28;20001;-77
2024/01/20 05:52:28;;;;;;;;;;;0.70;99.90;;;;;;5009405;28;19924;-77
2024/01/20 05:55:14;;;;;;;;;;;0.60;99.90;;;;;;5022227;28;19913;-76
2024/01/20 05:58:00;;;;;;;;;;;0.60;99.90;;;;;;5019949;28;19917;-77
2024/01/20 06:00:46;;;;;;;;;;;0.60;99.90;;;;;;5022896;28;19968;-76
2024/01/20 06:03:32;;;;;;;;;;;0.60;99.90;;;;;;5022218;28;19928;-76
2024/01/20 06:06:17;;;;;;;;;;;0.60;99.90;;;;;;5034546;28;20238;-76
2024/01/20 06:09:03;;;;;;;;;;;0.50;99.90;;;;;;5010198;28;20000;-78
2024/01/20 06:11:49;;;;;;;;;;;0.50;99.90;;;;;;5005134;28;19921;-77
2024/01/20 06:14:35;;;;;;;;;;;0.40;99.90;;;;;;5020536;28;19932;-78
2024/01/20 06:17:21;;;;;;;;;;;0.50;99.90;;;;;;5007697;28;20344;-77
2024/01/20 06:20:07;;;;;;;;;;;0.40;99.90;;;;;;5007209;28;19948;-78
2024/01/20 06:22:53;;;;;;;;;;;0.40;99.90;;;;;;5006988;28;19913;-78
2024/01/20 06:25:39;;;;;;;;;;;0.40;99.90;;;;;;5012133;28;19952;-77
2024/01/20 06:28:26;;;;;;;;;;;0.40;99.90;;;;;;5017558;28;19921;-76
2024/01/20 06:31:24;;;;;;;;;;;0.40;99.90;;;;;;4988020;28;19947;-77
2024/01/20 06:34:10;;;;;;;;;;;0.30;99.90;;;;;;5001021;28;20328;-76
2024/01/20 06:36:56;;;;;;;;;;;0.30;99.90;;;;;;5033344;28;19953;-77
2024/01/20 06:39:42;;;;;;;;;;;0.20;99.90;;;;;;5019836;28;19976;-78
2024/01/20 06:42:28;;;;;;;;;;;0.20;99.90;;;;;;5005472;28;20368;-77
2024/01/20 06:45:14;;;;;;;;;;;0.20;99.90;;;;;;5022942;28;19916;-76
2024/01/20 06:48:04;;;;;;;;;;;0.20;99.90;;;;;;5027444;28;19913;-76
2024/01/20 06:50:50;;;;;;;;;;;0.10;99.90;;;;;;5019195;28;19917;-77
2024/01/20 06:53:36;;;;;;;;;;;0.10;99.90;;;;;;5014803;28;19975;-77
2024/01/20 06:56:25;;;;;;;;;;;0.00;99.90;;;;;;5038017;28;19924;-76
2024/01/20 06:59:11;;;;;;;;;;;0.00;99.90;;;;;;5018692;28;19921;-77
2024/01/20 07:01:57;;;;;;;;;;;0.00;99.90;;;;;;5034218;28;19932;-77
2024/01/20 07:04:42;;;;;;;;;;;0.00;99.90;;;;;;5013782;28;20091;-77
2024/01/20 07:07:28;;;;;;;;;;;0.00;99.90;;;;;;5001474;28;19921;-76
2024/01/20 07:10:14;;;;;;;;;;;-0.10;99.90;;;;;;5033476;28;19920;-77
2024/01/20 07:13:00;;;;;;;;;;;-0.10;99.90;;;;;;5021022;28;19913;-75
2024/01/20 07:15:46;;;;;;;;;;;-0.10;99.90;;;;;;5019637;28;20341;-77
2024/01/20 07:18:32;;;;;;;;;;;-0.10;99.90;;;;;;5018901;28;19931;-77
2024/01/20 07:21:18;;;;;;;;;;;-0.10;99.90;;;;;;5047345;28;19924;-76
2024/01/20 07:24:04;;;;;;;;;;;-0.10;99.90;;;;;;5042540;28;19912;-77
2024/01/20 07:26:50;;;;;;;;;;;-0.10;99.90;;;;;;5030742;28;19928;-76
2024/01/20 07:29:36;;;;;;;;;;;-0.10;99.90;;;;;;5022511;28;20292;-76
2024/01/20 07:32:22;;;;;;;;;;;-0.10;99.90;;;;;;5012764;28;19952;-79
2024/01/20 07:35:08;;;;;;;;;;;-0.10;99.90;;;;;;5042101;28;19983;-78
2024/01/20 07:37:54;;;;;;;;;;;-0.10;99.90;;;;;;5042491;28;20261;-80
2024/01/20 07:40:39;;;;;;;;;;;-0.10;99.90;;;;;;5029280;28;19917;-78
2024/01/20 07:43:25;;;;;;;;;;;-0.10;99.90;;;;;;5014389;28;20003;-78
2024/01/20 07:46:12;;;;;;;;;;;-0.10;99.90;;;;;;5036700;28;19967;-78
2024/01/20 07:48:58;;;;;;;;;;;-0.10;99.90;;;;;;5036350;28;19913;-79
2024/01/20 07:51:44;;;;;;;;;;;-0.10;99.90;;;;;;5038681;28;19994;-79
2024/01/20 07:54:30;;;;;;;;;;;-0.10;99.90;;;;;;5027243;28;20008;-81
2024/01/20 07:57:16;;;;;;;;;;;-0.10;99.90;;;;;;5024199;28;19917;-81
2024/01/20 08:00:02;;;;;;;;;;;-0.10;99.90;;;;;;5023891;28;20345;-78
2024/01/20 08:02:48;;;;;;;;;;;0.00;99.90;;;;;;5032117;28;20006;-79
2024/01/20 08:05:33;;;;;;;;;;;0.00;99.90;;;;;;5021783;28;19952;-79
2024/01/20 08:08:20;;;;;;;;;;;-0.10;99.90;;;;;;4997253;28;19914;-80
2024/01/20 08:11:06;;;;;;;;;;;-0.10;99.90;;;;;;5007655;28;20334;-79
2024/01/20 08:13:52;;;;;;;;;;;0.00;99.90;;;;;;5016706;28;19996;-80
2024/01/20 08:16:38;;;;;;;;;;;-0.10;99.90;;;;;;5005726;28;19918;-80
2024/01/20 08:19:24;;;;;;;;;;;-0.10;99.90;;;;;;5031805;28;20012;-79
2024/01/20 08:22:10;;;;;;;;;;;0.00;99.90;;;;;;5011515;28;20003;-80
2024/01/20 08:24:59;;;;;;;;;;;-0.10;99.90;;;;;;5021611;28;19925;-80
2024/01/20 08:27:45;;;;;;;;;;;0.00;99.90;;;;;;4983492;28;20651;-80
2024/01/20 08:30:31;;;;;;;;;;;0.00;99.90;;;;;;4999067;28;19917;-77
2024/01/20 08:33:17;;;;;;;;;;;0.00;99.90;;;;;;5029686;28;19913;-80
2024/01/20 08:36:03;;;;;;;;;;;0.00;99.90;;;;;;4978736;28;19913;-79
2024/01/20 08:38:49;;;;;;;;;;;0.00;99.90;;;;;;5010470;28;20300;-79
2024/01/20 08:41:35;;;;;;;;;;;0.10;99.90;;;;;;4998063;28;20005;-79
2024/01/20 08:44:21;;;;;;;;;;;0.10;99.90;;;;;;5009176;28;19928;-79
2024/01/20 08:47:07;;;;;;;;;;;0.10;99.90;;;;;;5011120;28;19914;-80
2024/01/20 08:49:53;;;;;;;;;;;0.10;99.90;;;;;;4996615;28;19917;-80
2024/01/20 08:52:39;;;;;;;;;;;0.20;99.90;;;;;;4996586;28;19913;-80
2024/01/20 08:55:25;;;;;;;;;;;0.30;99.90;;;;;;4989003;28;19993;-80
2024/01/20 08:58:11;;;;;;;;;;;0.20;99.90;;;;;;5021074;28;19928;-80
2024/01/20 09:00:57;;;;;;;;;;;0.30;99.90;;;;;;5016242;28;19913;-80
2024/01/20 09:03:43;;;;;;;;;;;0.30;99.90;;;;;;5015794;28;20000;-78
2024/01/20 09:06:29;;;;;;;;;;;0.30;99.90;;;;;;4994074;28;19926;-81
2024/01/20 09:09:15;;;;;;;;;;;0.40;99.90;;;;;;4993267;28;19997;-80
2024/01/20 09:12:01;;;;;;;;;;;0.40;99.90;;;;;;4988282;28;20219;-79
2024/01/20 09:14:47;;;;;;;;;;;0.50;99.90;;;;;;4986439;28;19918;-81
2024/01/20 09:17:33;;;;;;;;;;;0.80;99.90;;;;;;4971891;28;20005;-81
2024/01/20 09:20:19;;;;;;;;;;;0.70;99.90;;;;;;4984163;28;20400;-78
2024/01/20 09:23:05;;;;;;;;;;;0.80;99.90;;;;;;4989247;28;19928;-81
2024/01/20 09:25:51;;;;;;;;;;;0.60;99.90;;;;;;5001671;28;19921;-79
2024/01/20 09:28:37;;;;;;;;;;;0.60;99.90;;;;;;4969224;28;19921;-79
2024/01/20 09:31:22;;;;;;;;;;;0.60;99.90;;;;;;4968812;28;19914;-78
2024/01/20 09:34:10;;;;;;;;;;;0.60;99.90;;;;;;5000748;28;19917;-78
2024/01/20 09:36:56;;;;;;;;;;;0.70;99.90;;;;;;4990558;28;20008;-77
2024/01/20 09:39:44;;;;;;;;;;;0.80;99.90;;;;;;4995885;28;20334;-77
2024/01/20 09:42:30;;;;;;;;;;;0.80;99.90;;;;;;4999563;28;19945;-78
2024/01/20 09:45:16;;;;;;;;;;;0.90;99.90;;;;;;4995104;28;19953;-76
2024/01/20 09:48:02;;;;;;;;;;;0.90;99.90;;;;;;4971288;28;19933;-77
2024/01/20 09:50:49;;;;;;;;;;;1.00;99.90;;;;;;4992580;28;20695;-76
2024/01/20 09:53:35;;;;;;;;;;;1.10;99.90;;;;;;4964212;28;19918;-78
2024/01/20 09:56:21;;;;;;;;;;;1.20;99.90;;;;;;5000539;28;20385;-77
2024/01/20 09:59:09;;;;;;;;;;;1.20;99.90;;;;;;4986639;28;19917;-76
2024/01/20 10:01:55;;;;;;;;;;;1.30;99.90;;;;;;4996747;28;19961;-78
2024/01/20 10:04:42;;;;;;;;;;;1.40;99.90;;;;;;4987159;28;19913;-77
2024/01/20 10:07:28;;;;;;;;;;;1.50;99.90;;;;;;5012321;28;19936;-77
2024/01/20 10:10:21;;;;;;;;;;;1.60;99.90;;;;;;5021104;28;19924;-77
2024/01/20 10:13:07;;;;;;;;;;;1.60;99.90;;;;;;5004789;28;19913;-76
2024/01/20 10:15:53;;;;;;;;;;;1.60;99.90;;;;;;5010836;28;19960;-77
2024/01/20 10:18:39;;;;;;;;;;;1.80;99.90;;;;;;5007242;28;19921;-76
2024/01/20 10:21:25;;;;;;;;;;;2.00;99.90;;;;;;5013705;28;19927;-77
2024/01/20 10:24:11;;;;;;;;;;;2.10;99.90;;;;;;5006959;28;20408;-76
2024/01/20 10:26:58;;;;;;;;;;;2.10;99.90;;;;;;5005243;28;20346;-76
2024/01/20 10:29:45;;;;;;;;;;;2.20;99.90;;;;;;5003190;28;19917;-77
2024/01/20 10:32:30;;;;;;;;;;;2.20;99.90;;;;;;5007061;28;20251;-78
2024/01/20 10:35:16;;;;;;;;;;;2.40;99.90;;;;;;5006930;28;19913;-79
2024/01/20 10:38:03;;;;;;;;;;;2.50;99.90;;;;;;5007521;28;19917;-80
2024/01/20 10:40:57;;;;;;;;;;;2.60;99.90;;;;;;4998196;28;20004;-79
2024/01/20 10:43:44;;;;;;;;;;;2.80;99.90;;;;;;5001172;28;19991;-80
2024/01/20 10:46:31;;;;;;;;;;;3.00;99.90;;;;;;5000339;28;20005;-79
2024/01/20 10:49:17;;;;;;;;;;;3.30;99.90;;;;;;5010762;28;20419;-78
2024/01/20 10:52:03;;;;;;;;;;;3.50;99.90;;;;;;5010231;28;19917;-78
2024/01/20 10:54:49;;;;;;;;;;;3.60;99.90;;;;;;4999486;28;19917;-79
2024/01/20 10:57:35;;;;;;;;;;;3.70;99.90;;;;;;5001063;28;20370;-79
2024/01/20 11:00:21;;;;;;;;;;;4.00;99.90;;;;;;5014629;28;19949;-79
2024/01/20 11:03:07;;;;;;;;;;;4.20;99.90;;;;;;5038962;28;19952;-80
2024/01/20 11:05:53;;;;;;;;;;;4.60;99.90;;;;;;5021800;28;19983;-78
2024/01/20 11:08:47;;;;;;;;;;;4.70;99.90;;;;;;4999837;28;19928;-78
2024/01/20 11:11:36;;;;;;;;;;;4.90;99.90;;;;;;5008557;28;19913;-79
2024/01/20 11:14:26;;;;;;;;;;;5.40;99.90;;;;;;5017905;28;19945;-80
2024/01/20 11:17:13;;;;;;;;;;;5.50;99.90;;;;;;5028859;28;19917;-79
2024/01/20 11:20:07;;;;;;;;;;;5.80;99.90;;;;;;5011145;28;19928;-79
2024/01/20 11:22:54;;;;;;;;;;;6.00;99.90;;;;;;5011906;28;19991;-79
2024/01/20 11:25:40;;;;;;;;;;;6.40;99.90;;;;;;5035290;28;19928;-79
2024/01/20 11:28:32;;;;;;;;;;;6.30;99.90;;;;;;5014760;28;19928;-78
2024/01/20 11:31:19;;;;;;;;;;;6.20;99.90;;;;;;5032838;28;20329;-79
2024/01/20 11:34:05;;;;;;;;;;;6.10;99.90;;;;;;5006007;28;19917;-77
2024/01/20 11:36:52;;;;;;;;;;;6.30;99.90;;;;;;5012179;28;19944;-79
2024/01/20 11:39:37;;;;;;;;;;;6.10;99.90;;;;;;5005472;28;19968;-79
2024/01/20 11:42:23;;;;;;;;;;;6.50;99.90;;;;;;5018069;28;19924;-78
2024/01/20 11:45:09;;;;;;;;;;;6.70;99.90;;;;;;5020230;28;20408;-79
2024/01/20 11:47:55;;;;;;;;;;;6.80;99.90;;;;;;5031987;28;19917;-79
2024/01/20 11:50:41;;;;;;;;;;;6.50;99.90;;;;;;5000311;28;19924;-78
2024/01/20 11:53:27;;;;;;;;;;;6.50;99.90;;;;;;5018691;28;20012;-77
2024/01/20 11:56:14;;;;;;;;;;;6.30;99.90;;;;;;5004324;28;19917;-78
2024/01/20 11:59:00;;;;;;;;;;;6.50;99.90;;;;;;5030270;28;19931;-79
2024/01/20 12:01:48;;;;;;;;;;;6.70;99.90;;;;;;4991749;28;19918;-80
2024/01/20 12:04:34;;;;;;;;;;;7.10;99.90;;;;;;5000693;28;20249;-79
2024/01/20 12:07:20;;;;;;;;;;;7.20;99.90;;;;;;5008544;28;19984;-79
2024/01/20 12:10:06;;;;;;;;;;;7.50;99.90;;;;;;5008939;28;20222;-79
2024/01/20 12:12:52;;;;;;;;;;;7.10;99.90;;;;;;5008816;28;19940;-78
2024/01/20 12:15:38;;;;;;;;;;;7.00;99.90;;;;;;5053595;28;19916;-78
2024/01/20 12:18:24;;;;;;;;;;;6.90;99.90;;;;;;5008012;28;19916;-78
2024/01/20 12:21:10;;;;;;;;;;;6.40;99.90;;;;;;5009693;28;19913;-78
2024/01/20 12:23:56;;;;;;;;;;;6.10;99.90;;;;;;5014042;28;19921;-77
2024/01/20 12:26:43;;;;;;;;;;;5.80;99.90;;;;;;5029854;28;19916;-76
2024/01/20 12:29:29;;;;;;;;;;;5.30;99.90;;;;;;5004902;28;19926;-78
2024/01/20 12:32:15;;;;;;;;;;;5.00;99.90;;;;;;5036205;28;19921;-79
2024/01/20 12:35:01;;;;;;;;;;;5.00;99.90;;;;;;5005321;28;20322;-78
2024/01/20 12:37:50;;;;;;;;;;;4.90;99.90;;;;;;5024716;28;19921;-77
2024/01/20 12:40:38;;;;;;;;;;;4.50;99.90;;;;;;5041983;28;19929;-79
2024/01/20 12:43:24;;;;;;;;;;;4.30;99.90;;;;;;5010357;28;19914;-78
2024/01/20 12:46:10;;;;;;;;;;;4.20;99.90;;;;;;5025611;28;20476;-76
2024/01/20 12:48:55;;;;;;;;;;;4.20;99.90;;;;;;5013447;28;19921;-76
2024/01/20 12:51:41;;;;;;;;;;;4.20;99.90;;;;;;5013812;28;20709;-76
2024/01/20 12:54:27;;;;;;;;;;;4.20;99.90;;;;;;5019240;28;19960;-76
2024/01/20 12:57:13;;;;;;;;;;;4.10;99.90;;;;;;5021071;28;19913;-75
2024/01/20 12:59:59;;;;;;;;;;;4.00;99.90;;;;;;5008423;28;19917;-76
2024/01/20 13:02:48;;;;;;;;;;;3.80;99.90;;;;;;5034256;28;19913;-76
2024/01/20 13:05:34;;;;;;;;;;;3.70;99.90;;;;;;5021017;28;19929;-76
2024/01/20 13:08:20;;;;;;;;;;;3.40;99.90;;;;;;5030518;28;20266;-76
2024/01/20 13:11:06;;;;;;;;;;;3.40;99.90;;;;;;5027604;28;19921;-76
2024/01/20 13:13:52;;;;;;;;;;;3.50;99.90;;;;;;5000176;28;19960;-76
2024/01/20 13:16:37;;;;;;;;;;;3.60;99.90;;;;;;4999135;28;19917;-77
2024/01/20 13:19:23;;;;;;;;;;;4.00;99.90;;;;;;5010671;28;20321;-81
2024/01/20 13:22:10;;;;;;;;;;;4.40;99.90;;;;;;5021841;28;19914;-76
2024/01/20 13:24:57;;;;;;;;;;;4.60;99.90;;;;;;5018060;28;20296;-75
2024/01/20 13:27:43;;;;;;;;;;;4.40;99.90;;;;;;5015878;28;19913;-75
2024/01/20 13:30:29;;;;;;;;;;;4.40;99.90;;;;;;5005775;28;20000;-75
2024/01/20 13:33:14;;;;;;;;;;;5.10;99.90;;;;;;5023829;28;19917;-74
2024/01/20 13:36:00;;;;;;;;;;;5.20;99.90;;;;;;5018210;28;19999;-74
2024/01/20 13:38:46;;;;;;;;;;;4.90;99.90;;;;;;5021199;28;19925;-75
2024/01/20 13:41:33;;;;;;;;;;;4.70;99.90;;;;;;5038988;28;19917;-74
2024/01/20 13:44:19;;;;;;;;;;;4.70;99.90;;;;;;5029176;28;20400;-75
2024/01/20 13:47:06;;;;;;;;;;;4.60;99.90;;;;;;4998500;28;19917;-75
2024/01/20 13:49:52;;;;;;;;;;;4.70;99.90;;;;;;5005633;28;19999;-74
2024/01/20 13:52:38;;;;;;;;;;;4.80;99.90;;;;;;5008156;28;19918;-74
2024/01/20 13:55:24;;;;;;;;;;;4.70;99.90;;;;;;5025546;28;19978;-74
2024/01/20 13:58:10;;;;;;;;;;;4.50;99.90;;;;;;5013112;28;19959;-74
2024/01/20 14:00:56;;;;;;;;;;;4.50;99.90;;;;;;5018585;28;19921;-74
2024/01/20 14:03:42;;;;;;;;;;;4.20;99.90;;;;;;5006081;28;19917;-75
2024/01/20 14:06:28;;;;;;;;;;;4.10;99.90;;;;;;4995527;28;20325;-75
2024/01/20 14:09:14;;;;;;;;;;;4.00;99.90;;;;;;5020050;28;19917;-77
2024/01/20 14:12:00;;;;;;;;;;;3.90;99.90;;;;;;5020882;28;19996;-74
2024/01/20 14:14:46;;;;;;;;;;;3.80;99.90;;;;;;5014418;28;19914;-74
2024/01/20 14:17:32;;;;;;;;;;;3.50;99.90;;;;;;5016226;28;19913;-73
2024/01/20 14:20:18;;;;;;;;;;;3.20;99.90;;;;;;5012483;28;19928;-75
2024/01/20 14:23:04;;;;;;;;;;;3.10;99.90;;;;;;5021885;28;20284;-75
2024/01/20 14:25:50;;;;;;;;;;;2.90;99.90;;;;;;5031344;28;19924;-75
2024/01/20 14:28:36;;;;;;;;;;;2.60;99.90;;;;;;5019653;28;20004;-75
2024/01/20 14:31:22;;;;;;;;;;;2.60;99.90;;;;;;5006770;28;19917;-74
2024/01/20 14:34:08;;;;;;;;;;;2.60;99.90;;;;;;5005053;28;19917;-77
2024/01/20 14:36:55;;;;;;;;;;;2.50;99.90;;;;;;5001839;28;19942;-77
2024/01/20 14:39:41;;;;;;;;;;;2.30;99.90;;;;;;4996010;28;19921;-77
2024/01/20 14:42:27;;;;;;;;;;;2.50;99.90;;;;;;5013607;28;19917;-75
2024/01/20 14:45:13;;;;;;;;;;;2.70;99.90;;;;;;5009443;28;19913;-75
2024/01/20 14:47:59;;;;;;;;;;;2.60;99.90;;;;;;5017819;28;19928;-74
2024/01/20 14:50:46;;;;;;;;;;;2.60;99.90;;;;;;5005237;28;19917;-75
2024/01/20 14:53:31;;;;;;;;;;;2.50;99.90;;;;;;5006343;28;19917;-75
2024/01/20 14:56:17;;;;;;;;;;;2.60;99.90;;;;;;5003718;28;19913;-75
2024/01/20 14:59:03;;;;;;;;;;;2.70;99.90;;;;;;5011868;28;20276;-75
2024/01/20 15:01:49;;;;;;;;;;;2.70;99.90;;;;;;5028887;28;19923;-75
2024/01/20 15:04:35;;;;;;;;;;;2.50;99.90;;;;;;5018145;28;19917;-75
2024/01/20 15:07:23;;;;;;;;;;;2.40;99.90;;;;;;5015095;28;19940;-75
2024/01/20 15:10:09;;;;;;;;;;;2.30;99.90;;;;;;5025183;28;19914;-75
2024/01/20 15:12:55;;;;;;;;;;;2.30;99.90;;;;;;5035231;28;19913;-76
2024/01/20 15:15:41;;;;;;;;;;;2.40;99.90;;;;;;5032565;28;19969;-77
2024/01/20 15:18:27;;;;;;;;;;;2.50;99.90;;;;;;5006626;28;20380;-77
2024/01/20 15:21:16;;;;;;;;;;;2.40;99.90;;;;;;4998904;28;19925;-75
2024/01/20 15:24:03;;;;;;;;;;;2.40;99.90;;;;;;5022664;28;19928;-75
2024/01/20 15:26:49;;;;;;;;;;;2.30;99.90;;;;;;5017475;28;20345;-74
2024/01/20 15:29:35;;;;;;;;;;;2.20;99.90;;;;;;5005632;28;20320;-75
2024/01/20 15:32:23;;;;;;;;;;;2.20;99.90;;;;;;5022618;28;19916;-77
2024/01/20 15:35:09;;;;;;;;;;;2.10;99.90;;;;;;5004690;28;19913;-77
2024/01/20 15:37:55;;;;;;;;;;;2.00;99.90;;;;;;5019392;28;19917;-78
2024/01/20 15:40:41;;;;;;;;;;;1.90;99.90;;;;;;5026954;28;19953;-75
2024/01/20 15:43:27;;;;;;;;;;;1.80;99.90;;;;;;5018841;28;20358;-75
2024/01/20 15:46:14;;;;;;;;;;;1.80;99.90;;;;;;5034524;28;19921;-75
2024/01/20 15:49:00;;;;;;;;;;;1.70;99.90;;;;;;5024346;28;19917;-75
2024/01/20 15:51:49;;;;;;;;;;;1.70;99.90;;;;;;5015710;28;19931;-79
2024/01/20 15:54:35;;;;;;;;;;;1.60;99.90;;;;;;5036896;28;19921;-77
2024/01/20 15:57:21;;;;;;;;;;;1.60;99.90;;;;;;5021748;28;19983;-78
2024/01/20 16:00:07;;;;;;;;;;;1.60;99.90;;;;;;5030802;28;20364;-77
2024/01/20 16:02:53;;;;;;;;;;;1.60;99.90;;;;;;5028866;28;19963;-74
2024/01/20 16:05:39;;;;;;;;;;;1.50;99.90;;;;;;5015929;28;20353;-77
2024/01/20 16:08:27;;;;;;;;;;;1.50;99.90;;;;;;5015209;28;19917;-77
2024/01/20 16:11:13;;;;;;;;;;;1.40;99.90;;;;;;5003084;28;19937;-77
2024/01/20 16:13:59;;;;;;;;;;;1.30;99.90;;;;;;4997940;28;19976;-76
2024/01/20 16:16:45;;;;;;;;;;;1.30;99.90;;;;;;4971451;28;20334;-77
2024/01/20 16:19:31;;;;;;;;;;;1.30;99.90;;;;;;4983348;28;19917;-77